Time;durP1;ratioP1;P1;durP2;ratioP2;P2;SDS_P1;SDS_P2;PMS_P1;PMS_P2;Temp;Humidity;BMP_temperature;BMP_pressure;BME280_temperature;BME280_humidity;BME280_pressure;Samples;Min_cycle;Max_cycle;Signal;HPM_P1;HPM_P2
2021/11/20 00:01:58;;;;;;;18.92;13.93;;;6.80;99.90;;;;;;6152752;23;20421;-78
2021/11/20 00:04:24;;;;;;;18.85;12.80;;;6.80;99.90;;;;;;6153821;23;20004;-79
2021/11/20 00:06:53;;;;;;;20.67;11.55;;;6.70;99.90;;;;;;6127040;23;20006;-77
2021/11/20 00:09:21;;;;;;;14.80;11.75;;;6.80;99.90;;;;;;6153641;23;20089;-77
2021/11/20 00:11:49;;;;;;;20.27;12.68;;;6.80;99.90;;;;;;6152901;23;19997;-78
2021/11/20 00:14:15;;;;;;;20.70;12.63;;;6.70;99.90;;;;;;6153166;23;20081;-78
2021/11/20 00:16:43;;;;;;;15.55;12.25;;;6.70;99.90;;;;;;6151309;23;20036;-78
2021/11/20 00:19:10;;;;;;;19.50;13.68;;;6.70;99.90;;;;;;6153485;23;20005;-78
2021/11/20 00:21:47;;;;;;;16.55;11.45;;;6.70;99.90;;;;;;6152880;23;20005;-78
2021/11/20 00:24:38;;;;;;;15.77;12.50;;;6.70;99.90;;;;;;6152307;23;20337;-78
2021/11/20 00:27:07;;;;;;;18.02;13.13;;;6.70;99.90;;;;;;6113275;23;20025;-78
2021/11/20 00:29:47;;;;;;;16.05;11.98;;;6.70;99.90;;;;;;6153488;23;19997;-78
2021/11/20 00:32:21;;;;;;;14.73;11.93;;;6.70;99.90;;;;;;6152720;23;20092;-78
2021/11/20 00:34:47;;;;;;;18.55;12.98;;;6.60;99.90;;;;;;6153668;23;20077;-78
2021/11/20 00:37:14;;;;;;;21.35;13.60;;;6.60;99.90;;;;;;6152863;23;20479;-77
2021/11/20 00:39:41;;;;;;;19.50;13.18;;;6.60;99.90;;;;;;6153317;23;20028;-77
2021/11/20 00:42:09;;;;;;;18.73;12.50;;;6.60;99.90;;;;;;6152880;23;20174;-78
2021/11/20 00:44:35;;;;;;;20.10;12.88;;;6.60;99.90;;;;;;6151860;23;20010;-77
2021/11/20 00:47:02;;;;;;;17.50;11.90;;;6.60;99.90;;;;;;6150079;23;20048;-78
2021/11/20 00:49:28;;;;;;;17.92;11.80;;;6.60;99.90;;;;;;6152492;23;20059;-78
2021/11/20 00:51:55;;;;;;;17.02;12.07;;;6.60;99.90;;;;;;6151669;23;20001;-78
2021/11/20 00:54:22;;;;;;;15.88;11.68;;;6.70;99.90;;;;;;6153602;23;19998;-78
2021/11/20 00:56:48;;;;;;;15.30;11.05;;;6.70;99.90;;;;;;6152417;23;20622;-78
2021/11/20 00:59:15;;;;;;;18.05;12.00;;;6.70;99.90;;;;;;6152924;23;20088;-78
2021/11/20 01:01:48;;;;;;;13.95;11.35;;;6.70;99.90;;;;;;6152362;23;20076;-77
2021/11/20 01:04:15;;;;;;;17.90;12.23;;;6.70;99.90;;;;;;6154823;23;20005;-77
2021/11/20 01:06:42;;;;;;;15.23;11.55;;;6.70;99.90;;;;;;6154525;23;20005;-77
2021/11/20 01:09:11;;;;;;;14.65;11.13;;;6.70;99.90;;;;;;6155205;23;20129;-77
2021/11/20 01:11:50;;;;;;;17.63;10.85;;;6.80;99.90;;;;;;6154520;23;20440;-78
2021/11/20 01:14:17;;;;;;;16.13;11.23;;;6.80;99.90;;;;;;6155181;23;20029;-78
2021/11/20 01:16:45;;;;;;;14.93;11.65;;;6.80;99.90;;;;;;6154316;23;20076;-78
2021/11/20 01:19:11;;;;;;;15.32;10.93;;;6.80;99.90;;;;;;6155340;23;20005;-77
2021/11/20 01:21:38;;;;;;;15.63;10.77;;;6.70;99.90;;;;;;6154288;23;20052;-78
2021/11/20 01:24:06;;;;;;;15.15;10.68;;;6.70;99.90;;;;;;6154484;23;20033;-77
2021/11/20 01:26:33;;;;;;;12.80;10.02;;;6.80;99.90;;;;;;6154094;23;19997;-78
2021/11/20 01:29:00;;;;;;;14.57;10.95;;;6.80;99.90;;;;;;6154455;23;20055;-78
2021/11/20 01:31:28;;;;;;;16.15;11.15;;;6.70;99.90;;;;;;6154383;23;19997;-78
2021/11/20 01:33:55;;;;;;;16.10;10.10;;;6.70;99.90;;;;;;6153298;23;20005;-78
2021/11/20 01:36:24;;;;;;;14.65;11.20;;;6.70;99.90;;;;;;6154191;23;20460;-78
2021/11/20 01:38:51;;;;;;;15.30;10.93;;;6.60;99.90;;;;;;6154806;23;20045;-78
2021/11/20 01:41:19;;;;;;;15.65;10.90;;;6.60;99.90;;;;;;6128602;23;20001;-78
2021/11/20 01:43:50;;;;;;;17.85;11.52;;;6.60;99.90;;;;;;6154789;23;20067;-79
2021/11/20 01:46:21;;;;;;;17.30;12.30;;;6.60;99.90;;;;;;6154167;23;20052;-78
2021/11/20 01:49:11;;;;;;;18.92;10.90;;;6.60;99.90;;;;;;6153004;23;20029;-78
2021/11/20 01:51:51;;;;;;;18.77;11.30;;;6.60;99.90;;;;;;6154243;23;20396;-78
2021/11/20 01:54:44;;;;;;;17.17;11.48;;;6.60;99.90;;;;;;6154968;23;20024;-79
2021/11/20 01:57:38;;;;;;;14.20;10.65;;;6.50;99.90;;;;;;6154180;23;20005;-79
2021/11/20 02:00:12;;;;;;;14.70;11.30;;;6.50;99.90;;;;;;6154440;23;20067;-78
2021/11/20 02:02:58;;;;;;;14.77;11.02;;;6.50;99.90;;;;;;6154175;23;19997;-78
2021/11/20 02:05:45;;;;;;;16.05;10.95;;;6.50;99.90;;;;;;6154552;23;20002;-78
2021/11/20 02:08:22;;;;;;;15.93;11.35;;;6.40;99.90;;;;;;6154264;23;20334;-78
2021/11/20 02:10:56;;;;;;;14.57;10.85;;;6.40;99.90;;;;;;6154393;23;20010;-77
2021/11/20 02:13:25;;;;;;;15.85;10.43;;;6.40;99.90;;;;;;6154356;23;20005;-78
2021/11/20 02:15:51;;;;;;;15.65;10.27;;;6.50;99.90;;;;;;6153771;23;20008;-78
2021/11/20 02:18:21;;;;;;;17.58;10.77;;;6.40;99.90;;;;;;6154122;23;20056;-78
2021/11/20 02:20:53;;;;;;;13.70;10.20;;;6.50;99.90;;;;;;6154331;23;20009;-78
2021/11/20 02:23:19;;;;;;;13.57;10.35;;;6.50;99.90;;;;;;6154274;23;20029;-77
2021/11/20 02:25:44;;;;;;;17.45;11.57;;;6.50;99.90;;;;;;6154422;23;20488;-77
2021/11/20 02:28:10;;;;;;;15.93;11.02;;;6.50;99.90;;;;;;6153894;23;20006;-77
2021/11/20 02:30:40;;;;;;;18.60;10.32;;;6.50;99.90;;;;;;6154238;23;20076;-78
2021/11/20 02:33:06;;;;;;;12.85;9.63;;;6.50;99.90;;;;;;6153963;23;20008;-78
2021/11/20 02:35:42;;;;;;;11.77;9.23;;;6.50;99.90;;;;;;6154235;23;20069;-78
2021/11/20 02:38:13;;;;;;;11.93;9.35;;;6.50;99.90;;;;;;6154364;23;20010;-78
2021/11/20 02:40:39;;;;;;;13.32;9.80;;;6.50;99.90;;;;;;6154406;23;20025;-78
2021/11/20 02:43:05;;;;;;;13.98;9.93;;;6.50;99.90;;;;;;6127852;23;20001;-78
2021/11/20 02:45:50;;;;;;;16.77;11.13;;;6.50;99.90;;;;;;6127829;23;20033;-78
2021/11/20 02:48:16;;;;;;;15.45;9.73;;;6.50;99.90;;;;;;6153697;23;20081;-78
2021/11/20 02:51:05;;;;;;;16.27;10.38;;;6.40;99.90;;;;;;6152749;23;20051;-77
2021/11/20 02:53:34;;;;;;;14.85;10.68;;;6.50;99.90;;;;;;6154144;23;20032;-78
2021/11/20 02:56:02;;;;;;;16.92;10.35;;;6.50;99.90;;;;;;6153779;23;20370;-78
2021/11/20 02:58:28;;;;;;;18.90;10.27;;;6.40;99.90;;;;;;6127606;23;20318;-78
2021/11/20 03:00:59;;;;;;;17.85;10.85;;;6.40;99.90;;;;;;6154093;23;20056;-78
2021/11/20 03:03:25;;;;;;;12.57;9.30;;;6.40;99.90;;;;;;6154013;23;20006;-78
2021/11/20 03:05:51;;;;;;;13.63;9.95;;;6.40;99.90;;;;;;6127910;23;20096;-78
2021/11/20 03:08:17;;;;;;;12.88;9.48;;;6.40;99.90;;;;;;6153695;23;20021;-78
2021/11/20 03:10:44;;;;;;;14.13;10.15;;;6.30;99.90;;;;;;6153811;23;20349;-78
2021/11/20 03:13:11;;;;;;;12.32;8.98;;;6.30;99.90;;;;;;6153635;23;20028;-78
2021/11/20 03:15:37;;;;;;;13.85;10.00;;;6.30;99.90;;;;;;6127586;23;20449;-78
2021/11/20 03:18:03;;;;;;;11.20;9.48;;;6.30;99.90;;;;;;6153585;23;20001;-78
2021/11/20 03:20:31;;;;;;;17.88;9.32;;;6.30;99.90;;;;;;6153956;23;20299;-77
2021/11/20 03:23:09;;;;;;;14.02;9.13;;;6.30;99.90;;;;;;6153617;23;20054;-78
2021/11/20 03:25:35;;;;;;;14.88;10.10;;;6.30;99.90;;;;;;6153494;23;20076;-77
2021/11/20 03:28:01;;;;;;;15.15;10.40;;;6.30;99.90;;;;;;6127097;23;20040;-78
2021/11/20 03:30:26;;;;;;;12.65;10.85;;;6.30;99.90;;;;;;6152313;23;19997;-78
2021/11/20 03:32:52;;;;;;;16.42;10.20;;;6.20;99.90;;;;;;6127212;23;20063;-78
2021/11/20 03:35:19;;;;;;;17.33;10.40;;;6.20;99.90;;;;;;6127699;23;20013;-78
2021/11/20 03:37:45;;;;;;;11.90;8.98;;;6.20;99.90;;;;;;6153213;23;20013;-78
2021/11/20 03:40:14;;;;;;;11.98;9.02;;;6.10;99.90;;;;;;6153853;23;20032;-78
2021/11/20 03:42:40;;;;;;;12.43;9.35;;;6.10;99.90;;;;;;6127331;23;20009;-78
2021/11/20 03:45:08;;;;;;;12.73;9.57;;;6.20;99.90;;;;;;6152206;23;20059;-78
2021/11/20 03:47:34;;;;;;;13.98;9.75;;;6.10;99.90;;;;;;6127054;23;20002;-78
2021/11/20 03:50:00;;;;;;;12.25;9.38;;;6.10;99.90;;;;;;6127606;23;20014;-78
2021/11/20 03:52:27;;;;;;;13.38;8.93;;;6.10;99.90;;;;;;6127143;23;20385;-78
2021/11/20 03:54:53;;;;;;;11.77;8.45;;;6.10;99.90;;;;;;6154043;23;20017;-78
2021/11/20 03:57:20;;;;;;;13.90;9.30;;;6.10;99.90;;;;;;6151575;23;20028;-77
2021/11/20 03:59:47;;;;;;;13.70;9.05;;;6.10;99.90;;;;;;6127358;23;20017;-78
2021/11/20 04:02:13;;;;;;;13.70;9.00;;;6.10;99.90;;;;;;6126707;23;20093;-78
2021/11/20 04:04:39;;;;;;;13.55;8.93;;;6.10;99.90;;;;;;6153596;23;20029;-78
2021/11/20 04:07:05;;;;;;;12.27;8.75;;;6.20;99.90;;;;;;6153184;23;20413;-78
2021/11/20 04:09:30;;;;;;;9.60;7.75;;;6.10;99.90;;;;;;6153669;23;20010;-78
2021/11/20 04:11:56;;;;;;;14.13;9.20;;;6.10;99.90;;;;;;6153039;23;20004;-78
2021/11/20 04:14:24;;;;;;;12.80;8.60;;;6.10;99.90;;;;;;6153589;23;20002;-78
2021/11/20 04:16:49;;;;;;;13.73;9.02;;;6.10;99.90;;;;;;6152756;23;20329;-78
2021/11/20 04:19:16;;;;;;;10.68;8.20;;;6.10;99.90;;;;;;6153188;23;20009;-77
2021/11/20 04:21:43;;;;;;;11.73;8.70;;;6.20;99.90;;;;;;6153109;23;20010;-78
2021/11/20 04:24:09;;;;;;;11.60;8.55;;;6.20;99.90;;;;;;6152022;23;20015;-78
2021/11/20 04:26:36;;;;;;;9.23;8.07;;;6.20;99.90;;;;;;6152949;23;20006;-78
2021/11/20 04:29:02;;;;;;;11.25;8.13;;;6.20;99.90;;;;;;6153465;23;20002;-78
2021/11/20 04:31:28;;;;;;;12.23;8.20;;;6.20;99.90;;;;;;6152979;23;20429;-78
2021/11/20 04:33:54;;;;;;;11.57;8.25;;;6.10;99.90;;;;;;6127287;23;20006;-78
2021/11/20 04:36:21;;;;;;;12.82;8.30;;;6.10;99.90;;;;;;6153136;23;20073;-77
2021/11/20 04:38:47;;;;;;;10.05;7.85;;;6.10;99.90;;;;;;6154691;23;20005;-77
2021/11/20 04:41:14;;;;;;;15.90;8.30;;;6.10;99.90;;;;;;6155356;23;20002;-77
2021/11/20 04:43:43;;;;;;;15.27;7.72;;;6.10;99.90;;;;;;6129285;23;20005;-78
2021/11/20 04:46:10;;;;;;;9.30;7.88;;;6.10;99.90;;;;;;6153255;23;20421;-77
2021/11/20 04:48:35;;;;;;;11.02;7.97;;;6.10;99.90;;;;;;6128966;23;20008;-78
2021/11/20 04:51:02;;;;;;;12.05;7.95;;;6.10;99.90;;;;;;6128941;23;20037;-78
2021/11/20 04:53:30;;;;;;;10.60;8.05;;;6.10;99.90;;;;;;6155262;23;20002;-77
2021/11/20 04:55:58;;;;;;;12.68;8.68;;;6.00;99.90;;;;;;6154921;23;20029;-78
2021/11/20 04:58:25;;;;;;;13.93;9.63;;;6.00;99.90;;;;;;6154908;23;20010;-78
2021/11/20 05:00:53;;;;;;;11.57;8.80;;;6.00;99.90;;;;;;6155253;23;20403;-78
2021/11/20 05:03:21;;;;;;;13.20;9.38;;;5.90;99.90;;;;;;6153503;23;20009;-78
2021/11/20 05:05:48;;;;;;;11.77;8.82;;;5.90;99.90;;;;;;6153260;23;20060;-78
2021/11/20 05:08:14;;;;;;;9.38;7.40;;;5.90;99.90;;;;;;6128645;23;20029;-78
2021/11/20 05:10:41;;;;;;;12.27;9.20;;;5.90;99.90;;;;;;6155069;23;20044;-78
2021/11/20 05:13:08;;;;;;;10.93;8.30;;;5.90;99.90;;;;;;6152929;23;20002;-78
2021/11/20 05:15:36;;;;;;;15.25;8.02;;;5.90;99.90;;;;;;6153450;23;20064;-78
2021/11/20 05:18:03;;;;;;;10.35;8.20;;;5.90;99.90;;;;;;6154355;23;20511;-78
2021/11/20 05:20:30;;;;;;;8.90;7.20;;;5.90;99.90;;;;;;6155351;23;20009;-78
2021/11/20 05:22:55;;;;;;;10.13;8.18;;;5.90;99.90;;;;;;6154633;23;20001;-78
2021/11/20 05:25:22;;;;;;;14.88;7.95;;;5.90;99.90;;;;;;6154783;23;20002;-78
2021/11/20 05:27:52;;;;;;;10.85;7.28;;;5.90;99.90;;;;;;6154105;23;20005;-78
2021/11/20 05:30:30;;;;;;;10.10;7.00;;;5.90;99.90;;;;;;6153220;23;20604;-78
2021/11/20 05:32:58;;;;;;;10.60;7.75;;;5.90;99.90;;;;;;6152795;23;20032;-77
2021/11/20 05:35:26;;;;;;;10.07;7.68;;;5.90;99.90;;;;;;6154940;23;20085;-77
2021/11/20 05:37:52;;;;;;;14.27;8.55;;;5.90;99.90;;;;;;6152745;23;20006;-78
2021/11/20 05:40:19;;;;;;;10.95;7.95;;;5.80;99.90;;;;;;6154817;23;20020;-78
2021/11/20 05:42:49;;;;;;;9.77;7.00;;;5.80;99.90;;;;;;6154295;23;20002;-78
2021/11/20 05:45:15;;;;;;;8.80;6.72;;;5.80;99.90;;;;;;6154591;23;20366;-78
2021/11/20 05:47:41;;;;;;;8.70;7.20;;;5.70;99.90;;;;;;6154374;23;19998;-75
2021/11/20 05:50:09;;;;;;;9.88;7.38;;;5.70;99.90;;;;;;6154514;23;19997;-78
2021/11/20 05:52:34;;;;;;;11.48;7.50;;;5.70;99.90;;;;;;6152802;23;20001;-77
2021/11/20 05:55:00;;;;;;;13.65;7.65;;;5.70;99.90;;;;;;6128450;23;20005;-77
2021/11/20 05:57:26;;;;;;;9.18;6.93;;;5.70;99.90;;;;;;6128041;23;20016;-78
2021/11/20 05:59:52;;;;;;;8.10;6.82;;;5.70;99.90;;;;;;6128274;23;20009;-78
2021/11/20 06:02:18;;;;;;;8.18;7.03;;;5.70;99.90;;;;;;6153716;23;19998;-77
2021/11/20 06:04:44;;;;;;;10.77;7.95;;;5.70;99.90;;;;;;6153910;23;20339;-77
2021/11/20 06:07:13;;;;;;;12.45;7.55;;;5.60;99.90;;;;;;6153339;23;20009;-78
2021/11/20 06:09:40;;;;;;;10.88;7.32;;;5.60;99.90;;;;;;6154454;23;20025;-77
2021/11/20 06:12:08;;;;;;;12.02;7.22;;;5.60;99.90;;;;;;6154040;23;20002;-78
2021/11/20 06:14:33;;;;;;;8.77;6.97;;;5.60;99.90;;;;;;6128532;23;20092;-77
2021/11/20 06:16:59;;;;;;;8.75;6.63;;;5.60;99.90;;;;;;6127289;23;20500;-77
2021/11/20 06:19:25;;;;;;;11.40;6.40;;;5.60;99.90;;;;;;6154624;23;20521;-77
2021/11/20 06:21:52;;;;;;;9.00;6.80;;;5.60;99.90;;;;;;6127840;23;20001;-77
2021/11/20 06:24:17;;;;;;;9.60;7.25;;;5.70;99.90;;;;;;6154668;23;19998;-78
2021/11/20 06:26:44;;;;;;;8.80;6.47;;;5.70;99.90;;;;;;6153401;23;20085;-78
2021/11/20 06:29:10;;;;;;;11.65;6.85;;;5.70;99.90;;;;;;6154519;23;19997;-78
2021/11/20 06:31:36;;;;;;;8.80;6.70;;;5.70;99.90;;;;;;6153461;23;20072;-78
2021/11/20 06:34:02;;;;;;;10.45;7.05;;;5.70;99.90;;;;;;6154504;23;20069;-77
2021/11/20 06:36:30;;;;;;;9.85;7.03;;;5.70;99.90;;;;;;6153617;23;19998;-77
2021/11/20 06:38:56;;;;;;;10.00;7.57;;;5.70;99.90;;;;;;6153916;23;20103;-77
2021/11/20 06:41:22;;;;;;;8.80;7.15;;;5.80;99.90;;;;;;6152576;23;20020;-78
2021/11/20 06:43:48;;;;;;;11.10;7.72;;;5.80;99.90;;;;;;6154251;23;19997;-78
2021/11/20 06:46:16;;;;;;;11.63;7.88;;;5.90;99.90;;;;;;6153911;23;20333;-78
2021/11/20 06:48:42;;;;;;;9.57;7.35;;;5.90;99.90;;;;;;6153969;23;20001;-78
2021/11/20 06:51:09;;;;;;;10.82;7.43;;;6.00;99.90;;;;;;6153602;23;20002;-78
2021/11/20 06:53:36;;;;;;;9.40;7.30;;;6.10;99.90;;;;;;6154035;23;20051;-78
2021/11/20 06:56:02;;;;;;;10.65;6.78;;;6.10;99.90;;;;;;6127791;23;20004;-78
2021/11/20 07:01:10;;;;;;;9.43;8.07;;;6.30;99.90;;;;;;6154036;23;20005;-80
2021/11/20 07:03:57;;;;;;;9.50;6.55;;;6.30;99.90;;;;;;6152358;23;20005;-79
2021/11/20 07:06:32;;;;;;;9.93;6.95;;;6.40;99.90;;;;;;6153510;23;20007;-78
2021/11/20 07:08:59;;;;;;;8.90;6.55;;;6.50;99.90;;;;;;6154142;23;21057;-78
2021/11/20 07:11:26;;;;;;;9.60;6.75;;;6.60;99.90;;;;;;6151974;23;20432;-78
2021/11/20 07:13:52;;;;;;;7.35;6.00;;;6.70;99.90;;;;;;6154147;23;19997;-78
2021/11/20 07:16:21;;;;;;;8.30;6.43;;;6.80;99.90;;;;;;6127458;23;20006;-78
2021/11/20 07:18:46;;;;;;;11.55;7.47;;;7.00;99.90;;;;;;6153694;23;20009;-78
2021/11/20 07:21:13;;;;;;;12.82;7.30;;;7.10;99.90;;;;;;6153841;23;20005;-78
2021/11/20 07:23:39;;;;;;;9.07;6.97;;;7.20;99.90;;;;;;6153930;23;20474;-78
2021/11/20 07:26:07;;;;;;;9.98;6.60;;;7.30;99.90;;;;;;6153663;23;20345;-77
2021/11/20 07:28:33;;;;;;;9.77;6.00;;;7.40;99.90;;;;;;6153848;23;20393;-75
2021/11/20 07:30:59;;;;;;;11.50;5.50;;;7.50;99.90;;;;;;6153059;23;20021;-77
2021/11/20 07:33:25;;;;;;;8.27;5.43;;;7.60;99.90;;;;;;6153472;23;20069;-77
2021/11/20 07:35:57;;;;;;;7.97;6.07;;;7.70;99.90;;;;;;6153761;23;20033;-77
2021/11/20 07:38:34;;;;;;;7.38;5.85;;;7.90;99.90;;;;;;6153394;23;20557;-77
2021/11/20 07:41:00;;;;;;;8.43;6.05;;;8.00;99.90;;;;;;6153565;23;20002;-79
2021/11/20 07:43:26;;;;;;;14.00;6.97;;;8.10;99.90;;;;;;6153393;23;20031;-78
2021/11/20 07:45:52;;;;;;;8.68;6.82;;;8.20;99.90;;;;;;6152066;23;20006;-78
2021/11/20 07:48:22;;;;;;;10.60;6.72;;;8.30;99.90;;;;;;6153176;23;20036;-78
2021/11/20 07:50:50;;;;;;;10.85;7.90;;;8.40;99.90;;;;;;6151738;23;20337;-80
2021/11/20 07:53:17;;;;;;;9.25;7.63;;;8.50;99.90;;;;;;6151841;23;20037;-80
2021/11/20 07:55:44;;;;;;;9.65;6.55;;;8.50;99.90;;;;;;6152175;23;20014;-81
2021/11/20 07:58:10;;;;;;;10.30;6.40;;;8.60;99.90;;;;;;6152586;23;20002;-77
2021/11/20 08:00:38;;;;;;;11.02;6.57;;;8.80;99.90;;;;;;6153459;23;20012;-77
2021/11/20 08:03:06;;;;;;;8.02;6.28;;;8.90;99.90;;;;;;6152864;23;20081;-77
2021/11/20 08:05:32;;;;;;;8.68;6.65;;;9.00;99.90;;;;;;6153595;23;20005;-79
2021/11/20 08:07:58;;;;;;;11.32;6.00;;;9.20;99.90;;;;;;6153215;23;20041;-79
2021/11/20 08:10:28;;;;;;;12.93;6.45;;;9.20;99.90;;;;;;6153167;23;20021;-78
2021/11/20 08:12:54;;;;;;;9.75;7.18;;;9.40;99.90;;;;;;6152474;23;19998;-78
2021/11/20 08:15:21;;;;;;;9.38;6.57;;;9.50;99.90;;;;;;6152467;23;20009;-77
2021/11/20 08:17:47;;;;;;;12.65;6.55;;;9.50;99.90;;;;;;6150601;23;20021;-79
2021/11/20 08:20:17;;;;;;;10.43;7.03;;;9.60;99.90;;;;;;6151495;23;20006;-78
2021/11/20 08:22:43;;;;;;;11.25;6.82;;;9.70;99.90;;;;;;6151033;23;20005;-77
2021/11/20 08:25:12;;;;;;;11.07;7.35;;;9.60;99.90;;;;;;6149648;23;20104;-77
2021/11/20 08:27:38;;;;;;;11.18;6.78;;;9.70;99.90;;;;;;6150833;23;19997;-79
2021/11/20 08:30:06;;;;;;;10.88;7.18;;;10.00;99.90;;;;;;6151634;23;20108;-76
2021/11/20 08:32:32;;;;;;;9.60;7.88;;;10.30;99.90;;;;;;6152458;23;20013;-77
2021/11/20 08:34:58;;;;;;;9.48;7.28;;;10.60;99.90;;;;;;6153490;23;20525;-77
2021/11/20 08:37:25;;;;;;;8.80;6.38;;;11.00;99.90;;;;;;6153066;23;20342;-76
2021/11/20 08:39:53;;;;;;;9.60;7.22;;;11.20;99.90;;;;;;6151509;23;20180;-76
2021/11/20 08:42:19;;;;;;;9.10;7.57;;;11.50;99.90;;;;;;6152835;23;20016;-75
2021/11/20 08:44:45;;;;;;;12.30;8.13;;;11.70;99.90;;;;;;6153382;23;20016;-75
2021/11/20 08:47:11;;;;;;;12.75;8.27;;;11.80;99.90;;;;;;6126428;23;20006;-75
2021/11/20 08:49:37;;;;;;;15.85;9.27;;;11.90;99.90;;;;;;6153714;23;20008;-76
2021/11/20 08:52:04;;;;;;;16.35;9.63;;;12.10;99.90;;;;;;6126531;23;20006;-76
2021/11/20 08:54:30;;;;;;;14.38;9.30;;;12.30;99.90;;;;;;6151555;23;20010;-75
2021/11/20 08:56:58;;;;;;;22.77;12.93;;;12.50;99.90;;;;;;6126583;23;20009;-75
2021/11/20 08:59:26;;;;;;;16.60;13.13;;;12.70;99.90;;;;;;6153129;23;20079;-75
2021/11/20 09:02:27;;;;;;;19.85;14.05;;;12.70;99.90;;;;;;6152574;23;20033;-74
2021/11/20 09:04:59;;;;;;;20.05;14.27;;;12.80;99.90;;;;;;6153434;23;20006;-78
2021/11/20 09:07:36;;;;;;;23.25;16.17;;;12.90;99.90;;;;;;6153013;23;20001;-78
2021/11/20 09:10:16;;;;;;;34.10;16.33;;;13.00;99.90;;;;;;6153208;23;20017;-78
2021/11/20 09:13:10;;;;;;;29.23;17.42;;;13.10;99.90;;;;;;6152982;23;20440;-78
2021/11/20 09:16:02;;;;;;;27.45;17.80;;;13.20;99.90;;;;;;6153064;23;20048;-78
2021/11/20 09:18:30;;;;;;;21.00;16.73;;;13.30;99.90;;;;;;6139375;23;20025;-77
2021/11/20 09:20:56;;;;;;;24.27;17.92;;;13.20;99.90;;;;;;6153041;23;20079;-78
2021/11/20 09:23:22;;;;;;;27.70;18.95;;;13.30;99.90;;;;;;6126801;23;20005;-76
2021/11/20 09:25:49;;;;;;;25.70;18.50;;;13.20;99.90;;;;;;6154708;23;20002;-77
2021/11/20 09:28:16;;;;;;;35.40;24.23;;;13.10;99.90;;;;;;6154775;23;19997;-77
2021/11/20 09:30:47;;;;;;;32.20;23.60;;;12.90;99.90;;;;;;6128867;23;20012;-77
2021/11/20 09:33:14;;;;;;;33.92;25.13;;;12.60;99.90;;;;;;6154097;23;20341;-76
2021/11/20 09:35:41;;;;;;;34.58;25.23;;;12.40;99.90;;;;;;6154662;23;20012;-77
2021/11/20 09:38:08;;;;;;;39.38;25.42;;;12.30;99.90;;;;;;6128140;23;20060;-78
2021/11/20 09:40:37;;;;;;;39.33;26.95;;;12.30;99.90;;;;;;6154635;23;20064;-78
2021/11/20 09:43:05;;;;;;;39.45;29.85;;;12.40;99.90;;;;;;6154078;23;20429;-78
2021/11/20 09:45:45;;;;;;;39.15;30.08;;;12.50;99.90;;;;;;6154501;23;20036;-78
2021/11/20 09:48:20;;;;;;;44.65;32.42;;;12.50;99.90;;;;;;6154100;23;20001;-78
2021/11/20 09:50:58;;;;;;;50.65;33.20;;;12.50;99.90;;;;;;6128358;23;20037;-77
2021/11/20 09:53:23;;;;;;;49.50;33.17;;;12.60;99.90;;;;;;6154620;23;20006;-77
2021/11/20 09:55:56;;;;;;;46.05;32.33;;;12.50;99.90;;;;;;6154609;23;20006;-77
2021/11/20 09:58:26;;;;;;;53.92;36.38;;;12.50;99.90;;;;;;6153927;23;20012;-77
2021/11/20 10:01:04;;;;;;;57.90;36.55;;;12.20;99.90;;;;;;6154370;23;20002;-76
2021/11/20 10:03:58;;;;;;;55.17;35.97;;;12.00;99.90;;;;;;6154090;23;20029;-77
2021/11/20 10:06:42;;;;;;;54.75;34.67;;;11.90;99.90;;;;;;6153755;23;20084;-77
2021/11/20 10:09:20;;;;;;;61.40;35.28;;;12.00;99.90;;;;;;6152637;23;20404;-77
2021/11/20 10:11:58;;;;;;;57.38;34.90;;;12.10;99.90;;;;;;6153764;23;20013;-76
2021/11/20 10:14:42;;;;;;;53.33;35.28;;;12.00;99.90;;;;;;6128361;23;20009;-77
2021/11/20 10:17:17;;;;;;;52.63;34.75;;;11.90;99.90;;;;;;6153571;23;20385;-76
2021/11/20 10:19:47;;;;;;;49.05;34.22;;;12.00;99.90;;;;;;6154515;23;20067;-76
2021/11/20 10:22:15;;;;;;;54.80;35.58;;;12.00;99.90;;;;;;6153974;23;20048;-76
2021/11/20 10:24:53;;;;;;;50.45;33.47;;;12.00;99.90;;;;;;6154377;23;20006;-77
2021/11/20 10:27:26;;;;;;;51.25;33.03;;;12.00;99.90;;;;;;6153595;23;20009;-77
2021/11/20 10:29:57;;;;;;;46.55;34.45;;;12.20;99.90;;;;;;6154199;23;20056;-76
2021/11/20 10:32:49;;;;;;;52.43;33.77;;;12.30;99.90;;;;;;6126924;23;20429;-77
2021/11/20 10:35:26;;;;;;;48.28;34.40;;;12.50;99.90;;;;;;6140046;23;20076;-77
2021/11/20 10:38:12;;;;;;;54.88;36.15;;;12.30;99.90;;;;;;6127558;23;20063;-76
2021/11/20 10:40:51;;;;;;;58.17;38.95;;;12.10;99.90;;;;;;6153990;23;20006;-78
2021/11/20 10:43:38;;;;;;;55.03;35.92;;;12.00;99.90;;;;;;6151445;23;20002;-76
2021/11/20 10:46:06;;;;;;;59.42;37.60;;;12.10;99.90;;;;;;6151741;23;20367;-76
2021/11/20 10:48:39;;;;;;;52.78;34.70;;;12.00;99.90;;;;;;6125548;23;20006;-76
2021/11/20 10:51:42;;;;;;;56.25;37.53;;;11.90;99.90;;;;;;6150333;23;20017;-78
2021/11/20 10:54:21;;;;;;;66.65;42.72;;;12.00;99.90;;;;;;6152250;23;20002;-76
2021/11/20 10:56:58;;;;;;;64.10;40.75;;;12.00;99.90;;;;;;6152082;23;20421;-77
2021/11/20 10:59:58;;;;;;;69.18;45.55;;;12.10;99.90;;;;;;6127540;23;20013;-77
2021/11/20 11:02:46;;;;;;;80.90;50.72;;;12.00;99.90;;;;;;6153213;23;20048;-76
2021/11/20 11:05:40;;;;;;;79.55;52.13;;;12.10;99.90;;;;;;6127514;23;20002;-78
2021/11/20 11:08:38;;;;;;;72.65;49.60;;;12.00;99.90;;;;;;6153467;23;20009;-77
2021/11/20 11:11:14;;;;;;;86.05;56.00;;;12.10;99.90;;;;;;6151847;23;20014;-77
2021/11/20 11:14:12;;;;;;;87.60;55.30;;;12.00;99.90;;;;;;6153426;23;20002;-77
2021/11/20 11:16:50;;;;;;;76.68;50.70;;;11.70;99.90;;;;;;6126845;23;20002;-77
2021/11/20 11:19:48;;;;;;;83.75;53.00;;;11.90;99.90;;;;;;6153684;23;20512;-77
2021/11/20 11:22:35;;;;;;;79.45;52.88;;;12.10;99.90;;;;;;6126779;23;20012;-76
2021/11/20 11:25:09;;;;;;;94.72;58.10;;;12.40;99.90;;;;;;6152064;23;20336;-77
2021/11/20 11:28:04;;;;;;;92.18;58.63;;;12.20;99.90;;;;;;6126651;23;20128;-77
2021/11/20 11:31:01;;;;;;;86.53;59.03;;;12.20;99.90;;;;;;6152116;23;20060;-77
2021/11/20 11:33:32;;;;;;;92.55;58.85;;;12.50;99.90;;;;;;6127203;23;20425;-77
2021/11/20 11:36:31;;;;;;;87.70;57.60;;;12.60;99.90;;;;;;6153344;23;20012;-78
2021/11/20 11:39:04;;;;;;;84.15;57.03;;;12.70;99.90;;;;;;6153390;23;20014;-77
2021/11/20 11:42:06;;;;;;;92.75;59.53;;;12.50;99.90;;;;;;6126840;23;20005;-78
2021/11/20 11:44:56;;;;;;;88.22;59.58;;;12.40;99.90;;;;;;6127279;23;20005;-77
2021/11/20 11:47:47;;;;;;;91.63;59.00;;;12.50;99.90;;;;;;6152516;23;20048;-77
2021/11/20 11:50:34;;;;;;;98.00;62.85;;;12.40;99.90;;;;;;6153350;23;20024;-77
2021/11/20 11:53:22;;;;;;;92.78;60.42;;;12.40;99.90;;;;;;6152866;23;19997;-76
2021/11/20 11:55:50;;;;;;;101.15;62.65;;;12.40;99.90;;;;;;6153165;23;20028;-78
2021/11/20 11:58:34;;;;;;;98.47;60.47;;;12.40;99.90;;;;;;6152625;23;20005;-78
2021/11/20 12:01:08;;;;;;;97.53;59.92;;;12.60;99.90;;;;;;6153255;23;20030;-77
2021/11/20 12:03:42;;;;;;;83.63;56.17;;;12.50;99.90;;;;;;6151506;23;20009;-77
2021/11/20 12:06:26;;;;;;;88.22;58.53;;;12.70;99.90;;;;;;6151400;23;20063;-78
2021/11/20 12:09:00;;;;;;;92.57;57.75;;;12.90;99.90;;;;;;6153279;23;20496;-77
2021/11/20 12:11:28;;;;;;;89.85;57.65;;;13.30;99.90;;;;;;6126799;23;20022;-76
2021/11/20 12:14:13;;;;;;;93.45;52.00;;;13.60;99.90;;;;;;6153209;23;20415;-78
2021/11/20 12:16:49;;;;;;;86.25;52.25;;;14.90;99.90;;;;;;6152240;23;20005;-78
2021/11/20 12:19:43;;;;;;;79.60;52.05;;;16.30;99.90;;;;;;6153198;23;20045;-78
2021/11/20 12:22:21;;;;;;;78.63;52.63;;;16.40;99.90;;;;;;6152502;23;20002;-77
2021/11/20 12:25:02;;;;;;;73.97;50.85;;;16.20;99.90;;;;;;6153362;23;20009;-77
2021/11/20 12:27:37;;;;;;;75.57;50.88;;;16.60;99.90;;;;;;6126543;23;20009;-78
2021/11/20 12:30:10;;;;;;;80.82;51.70;;;17.50;99.90;;;;;;6152927;23;20085;-78
2021/11/20 12:32:55;;;;;;;79.15;50.67;;;17.40;99.90;;;;;;6126383;23;20421;-78
2021/11/20 12:35:57;;;;;;;72.32;49.85;;;17.50;99.90;;;;;;6152989;23;20009;-78
2021/11/20 12:38:50;;;;;;;79.22;50.17;;;17.60;99.90;;;;;;6033932;23;20011;-77
2021/11/20 12:41:54;;;;;;;81.30;53.72;;;16.90;99.90;;;;;;6150630;23;20084;-77
2021/11/20 12:44:39;;;;;;;76.65;52.28;;;16.20;99.90;;;;;;6146136;23;20010;-78
2021/11/20 12:47:26;;;;;;;86.32;52.30;;;15.90;99.90;;;;;;6126164;23;20151;-78
2021/11/20 12:50:25;;;;;;;75.60;52.00;;;16.70;99.90;;;;;;6126854;23;20009;-77
2021/11/20 12:53:12;;;;;;;93.38;52.38;;;16.70;99.90;;;;;;6152778;23;20433;-77
2021/11/20 12:55:48;;;;;;;75.80;51.10;;;16.70;99.90;;;;;;6153091;23;20005;-79
2021/11/20 12:58:31;;;;;;;89.97;55.78;;;16.30;99.90;;;;;;6152331;23;20001;-77
2021/11/20 13:00:57;;;;;;;93.82;57.97;;;15.40;99.90;;;;;;6154940;23;20337;-77
2021/11/20 13:03:28;;;;;;;95.28;61.25;;;14.40;99.90;;;;;;6155060;23;19997;-76
2021/11/20 13:05:58;;;;;;;110.68;66.10;;;13.50;99.90;;;;;;6154954;23;20005;-77
2021/11/20 13:08:48;;;;;;;109.15;67.30;;;13.00;99.90;;;;;;6129023;23;20009;-76